sensor_id;sensor_type;location;lat;lon;timestamp;pressure;altitude;pressure_sealevel;temperature
18713;BMP280;9485;49.386;8.674;2022-12-07T00:00:20;100603.84;;;6.62
18713;BMP280;9485;49.386;8.674;2022-12-07T00:05:40;100599.81;;;6.63
18713;BMP280;9485;49.386;8.674;2022-12-07T00:11:04;100596.84;;;6.67
18713;BMP280;9485;49.386;8.674;2022-12-07T00:16:28;100599.34;;;6.73
18713;BMP280;9485;49.386;8.674;2022-12-07T00:21:49;100584.69;;;6.78
18713;BMP280;9485;49.386;8.674;2022-12-07T00:27:11;100592.47;;;6.83
18713;BMP280;9485;49.386;8.674;2022-12-07T00:32:31;100583.16;;;6.95
18713;BMP280;9485;49.386;8.674;2022-12-07T00:37:52;100582.84;;;7.02
18713;BMP280;9485;49.386;8.674;2022-12-07T00:43:14;100571.59;;;7.02
18713;BMP280;9485;49.386;8.674;2022-12-07T00:48:35;100560.38;;;7.02
18713;BMP280;9485;49.386;8.674;2022-12-07T00:53:55;100564.28;;;7.05
18713;BMP280;9485;49.386;8.674;2022-12-07T00:59:17;100562.06;;;7.09
18713;BMP280;9485;49.386;8.674;2022-12-07T01:04:38;100565.53;;;7.13
18713;BMP280;9485;49.386;8.674;2022-12-07T01:09:58;100572.81;;;7.19
18713;BMP280;9485;49.386;8.674;2022-12-07T01:15:20;100578.91;;;7.27
18713;BMP280;9485;49.386;8.674;2022-12-07T01:20:40;100570.94;;;7.34
18713;BMP280;9485;49.386;8.674;2022-12-07T01:26:05;100582.66;;;7.42
18713;BMP280;9485;49.386;8.674;2022-12-07T01:31:28;100584.97;;;7.43
18713;BMP280;9485;49.386;8.674;2022-12-07T01:36:49;100589.63;;;7.46
18713;BMP280;9485;49.386;8.674;2022-12-07T01:42:10;100574.81;;;7.45
18713;BMP280;9485;49.386;8.674;2022-12-07T01:47:32;100574.34;;;7.47
18713;BMP280;9485;49.386;8.674;2022-12-07T01:52:56;100560.47;;;7.43
18713;BMP280;9485;49.386;8.674;2022-12-07T01:58:17;100548.13;;;7.41
18713;BMP280;9485;49.386;8.674;2022-12-07T02:03:42;100553.75;;;7.41
18713;BMP280;9485;49.386;8.674;2022-12-07T02:09:04;100565.31;;;7.43
18713;BMP280;9485;49.386;8.674;2022-12-07T02:14:25;100566.88;;;7.44
18713;BMP280;9485;49.386;8.674;2022-12-07T02:20:15;100563.28;;;7.43
18713;BMP280;9485;49.386;8.674;2022-12-07T02:26:04;100557.38;;;7.42
18713;BMP280;9485;49.386;8.674;2022-12-07T02:31:31;100540.03;;;7.34
18713;BMP280;9485;49.386;8.674;2022-12-07T02:37:00;100533.94;;;7.36
18713;BMP280;9485;49.386;8.674;2022-12-07T02:42:30;100545.81;;;7.31
18713;BMP280;9485;49.386;8.674;2022-12-07T02:47:57;100541.16;;;7.28
18713;BMP280;9485;49.386;8.674;2022-12-07T02:53:35;100514.50;;;7.14
18713;BMP280;9485;49.386;8.674;2022-12-07T02:59:09;100543.81;;;7.13
18713;BMP280;9485;49.386;8.674;2022-12-07T03:04:46;100548.66;;;7.13
18713;BMP280;9485;49.386;8.674;2022-12-07T03:10:18;100550.69;;;7.12
18713;BMP280;9485;49.386;8.674;2022-12-07T03:15:46;100554.88;;;7.17
18713;BMP280;9485;49.386;8.674;2022-12-07T03:21:17;100542.72;;;7.20
18713;BMP280;9485;49.386;8.674;2022-12-07T03:26:44;100534.75;;;7.18
18713;BMP280;9485;49.386;8.674;2022-12-07T03:32:14;100532.44;;;7.17
18713;BMP280;9485;49.386;8.674;2022-12-07T03:37:43;100523.41;;;7.13
18713;BMP280;9485;49.386;8.674;2022-12-07T03:43:06;100524.31;;;7.10
18713;BMP280;9485;49.386;8.674;2022-12-07T03:48:35;100515.59;;;7.08
18713;BMP280;9485;49.386;8.674;2022-12-07T03:54:07;100511.41;;;7.03
18713;BMP280;9485;49.386;8.674;2022-12-07T03:59:30;100512.66;;;7.02
18713;BMP280;9485;49.386;8.674;2022-12-07T04:04:51;100523.09;;;7.02
18713;BMP280;9485;49.386;8.674;2022-12-07T04:10:14;100523.88;;;7.02
18713;BMP280;9485;49.386;8.674;2022-12-07T04:15:34;100514.38;;;7.00
18713;BMP280;9485;49.386;8.674;2022-12-07T04:20:55;100517.19;;;7.00
18713;BMP280;9485;49.386;8.674;2022-12-07T04:26:17;100510.28;;;7.01
18713;BMP280;9485;49.386;8.674;2022-12-07T04:31:38;100508.28;;;7.01
18713;BMP280;9485;49.386;8.674;2022-12-07T04:36:58;100499.84;;;7.01
18713;BMP280;9485;49.386;8.674;2022-12-07T04:42:20;100489.09;;;7.00
18713;BMP280;9485;49.386;8.674;2022-12-07T04:47:41;100500.63;;;7.02
18713;BMP280;9485;49.386;8.674;2022-12-07T04:53:02;100491.13;;;6.99
18713;BMP280;9485;49.386;8.674;2022-12-07T04:58:23;100493.44;;;7.01
18713;BMP280;9485;49.386;8.674;2022-12-07T05:03:44;100500.19;;;7.03
18713;BMP280;9485;49.386;8.674;2022-12-07T05:09:05;100510.44;;;7.06
18713;BMP280;9485;49.386;8.674;2022-12-07T05:14:27;100519.19;;;7.08
18713;BMP280;9485;49.386;8.674;2022-12-07T05:19:47;100522.00;;;7.17
18713;BMP280;9485;49.386;8.674;2022-12-07T05:25:08;100516.34;;;7.26
18713;BMP280;9485;49.386;8.674;2022-12-07T05:30:32;100492.78;;;7.24
18713;BMP280;9485;49.386;8.674;2022-12-07T05:35:53;100493.28;;;7.13
18713;BMP280;9485;49.386;8.674;2022-12-07T05:41:17;100495.47;;;7.00
18713;BMP280;9485;49.386;8.674;2022-12-07T05:46:57;100508.13;;;6.96
18713;BMP280;9485;49.386;8.674;2022-12-07T05:52:18;100491.75;;;6.85
18713;BMP280;9485;49.386;8.674;2022-12-07T05:57:38;100496.88;;;6.87
18713;BMP280;9485;49.386;8.674;2022-12-07T06:03:00;100496.72;;;6.90
18713;BMP280;9485;49.386;8.674;2022-12-07T06:08:21;100494.56;;;6.85
18713;BMP280;9485;49.386;8.674;2022-12-07T06:13:42;100497.22;;;6.89
18713;BMP280;9485;49.386;8.674;2022-12-07T06:19:04;100512.81;;;6.99
18713;BMP280;9485;49.386;8.674;2022-12-07T06:24:24;100502.34;;;7.08
18713;BMP280;9485;49.386;8.674;2022-12-07T06:29:45;100516.53;;;7.14
18713;BMP280;9485;49.386;8.674;2022-12-07T06:35:08;100512.00;;;7.16
18713;BMP280;9485;49.386;8.674;2022-12-07T06:40:28;100519.50;;;7.10
18713;BMP280;9485;49.386;8.674;2022-12-07T06:45:49;100511.41;;;7.03
18713;BMP280;9485;49.386;8.674;2022-12-07T06:51:11;100520.00;;;7.00
18713;BMP280;9485;49.386;8.674;2022-12-07T06:56:32;100510.16;;;6.95
18713;BMP280;9485;49.386;8.674;2022-12-07T07:01:52;100511.09;;;6.92
18713;BMP280;9485;49.386;8.674;2022-12-07T07:07:14;100515.31;;;6.88
18713;BMP280;9485;49.386;8.674;2022-12-07T07:12:34;100513.13;;;6.83
18713;BMP280;9485;49.386;8.674;2022-12-07T07:17:55;100518.75;;;6.83
18713;BMP280;9485;49.386;8.674;2022-12-07T07:23:17;100522.78;;;6.91
18713;BMP280;9485;49.386;8.674;2022-12-07T07:28:38;100531.81;;;6.95
18713;BMP280;9485;49.386;8.674;2022-12-07T07:33:58;100519.66;;;6.98
18713;BMP280;9485;49.386;8.674;2022-12-07T07:39:20;100525.88;;;7.02
18713;BMP280;9485;49.386;8.674;2022-12-07T07:44:41;100531.81;;;7.04
18713;BMP280;9485;49.386;8.674;2022-12-07T07:50:02;100531.97;;;7.09
18713;BMP280;9485;49.386;8.674;2022-12-07T07:55:24;100542.09;;;7.16
18713;BMP280;9485;49.386;8.674;2022-12-07T08:00:44;100547.56;;;7.19
18713;BMP280;9485;49.386;8.674;2022-12-07T08:06:06;100552.56;;;7.24
18713;BMP280;9485;49.386;8.674;2022-12-07T08:11:28;100548.03;;;7.27
18713;BMP280;9485;49.386;8.674;2022-12-07T08:16:48;100553.16;;;7.28
18713;BMP280;9485;49.386;8.674;2022-12-07T08:22:09;100550.97;;;7.32
18713;BMP280;9485;49.386;8.674;2022-12-07T08:27:31;100558.13;;;7.33
18713;BMP280;9485;49.386;8.674;2022-12-07T08:32:51;100551.91;;;7.29
18713;BMP280;9485;49.386;8.674;2022-12-07T08:38:12;100557.22;;;7.36
18713;BMP280;9485;49.386;8.674;2022-12-07T08:43:35;100551.44;;;7.40
18713;BMP280;9485;49.386;8.674;2022-12-07T08:49:02;100560.03;;;7.36
18713;BMP280;9485;49.386;8.674;2022-12-07T08:54:24;100553.16;;;7.28
18713;BMP280;9485;49.386;8.674;2022-12-07T08:59:46;100560.50;;;7.17
18713;BMP280;9485;49.386;8.674;2022-12-07T09:05:32;100549.75;;;7.06
18713;BMP280;9485;49.386;8.674;2022-12-07T09:10:53;100560.06;;;7.09
18713;BMP280;9485;49.386;8.674;2022-12-07T09:16:15;100558.03;;;7.10
18713;BMP280;9485;49.386;8.674;2022-12-07T09:21:36;100562.72;;;7.04
18713;BMP280;9485;49.386;8.674;2022-12-07T09:26:57;100565.53;;;7.13
18713;BMP280;9485;49.386;8.674;2022-12-07T09:32:19;100570.34;;;7.12
18713;BMP280;9485;49.386;8.674;2022-12-07T09:37:40;100565.19;;;7.20
18713;BMP280;9485;49.386;8.674;2022-12-07T09:43:00;100565.16;;;7.29
18713;BMP280;9485;49.386;8.674;2022-12-07T09:48:29;100565.47;;;7.40
18713;BMP280;9485;49.386;8.674;2022-12-07T09:53:51;100557.97;;;7.45
18713;BMP280;9485;49.386;8.674;2022-12-07T09:59:16;100547.03;;;7.47
18713;BMP280;9485;49.386;8.674;2022-12-07T10:04:39;100551.09;;;7.46
18713;BMP280;9485;49.386;8.674;2022-12-07T10:10:04;100544.69;;;7.46
18713;BMP280;9485;49.386;8.674;2022-12-07T10:15:43;100540.13;;;7.57
18713;BMP280;9485;49.386;8.674;2022-12-07T10:21:18;100540.88;;;7.67
18713;BMP280;9485;49.386;8.674;2022-12-07T10:26:51;100533.56;;;7.69
18713;BMP280;9485;49.386;8.674;2022-12-07T10:32:31;100529.47;;;7.70
18713;BMP280;9485;49.386;8.674;2022-12-07T10:37:57;100524.84;;;7.91
18713;BMP280;9485;49.386;8.674;2022-12-07T10:43:19;100514.16;;;8.04
18713;BMP280;9485;49.386;8.674;2022-12-07T10:48:50;100501.16;;;8.15
18713;BMP280;9485;49.386;8.674;2022-12-07T10:54:22;100513.63;;;8.23
18713;BMP280;9485;49.386;8.674;2022-12-07T11:00:07;100512.25;;;8.19
18713;BMP280;9485;49.386;8.674;2022-12-07T11:05:39;100498.31;;;8.24
18713;BMP280;9485;49.386;8.674;2022-12-07T11:11:13;100508.66;;;8.41
18713;BMP280;9485;49.386;8.674;2022-12-07T11:16:55;100497.03;;;8.48
18713;BMP280;9485;49.386;8.674;2022-12-07T11:22:24;100485.88;;;8.54
18713;BMP280;9485;49.386;8.674;2022-12-07T11:28:04;100476.47;;;8.57
18713;BMP280;9485;49.386;8.674;2022-12-07T11:33:35;100470.38;;;8.58
18713;BMP280;9485;49.386;8.674;2022-12-07T11:39:03;100466.59;;;8.61
18713;BMP280;9485;49.386;8.674;2022-12-07T11:44:34;100455.91;;;8.65
18713;BMP280;9485;49.386;8.674;2022-12-07T11:50:14;100450.97;;;8.75
18713;BMP280;9485;49.386;8.674;2022-12-07T11:55:45;100453.59;;;8.78
18713;BMP280;9485;49.386;8.674;2022-12-07T12:01:25;100448.47;;;8.77
18713;BMP280;9485;49.386;8.674;2022-12-07T12:06:46;100442.84;;;8.77
18713;BMP280;9485;49.386;8.674;2022-12-07T12:12:31;100437.19;;;8.77
18713;BMP280;9485;49.386;8.674;2022-12-07T12:18:22;100431.38;;;8.80
18713;BMP280;9485;49.386;8.674;2022-12-07T12:23:54;100425.06;;;8.85
18713;BMP280;9485;49.386;8.674;2022-12-07T12:29:25;100413.03;;;8.85
18713;BMP280;9485;49.386;8.674;2022-12-07T12:35:22;100418.84;;;8.95
18713;BMP280;9485;49.386;8.674;2022-12-07T12:40:47;100406.34;;;9.11
18713;BMP280;9485;49.386;8.674;2022-12-07T12:46:47;100413.63;;;9.32
18713;BMP280;9485;49.386;8.674;2022-12-07T12:52:49;100397.72;;;9.49
18713;BMP280;9485;49.386;8.674;2022-12-07T12:58:37;100394.09;;;9.63
18713;BMP280;9485;49.386;8.674;2022-12-07T13:03:58;100393.75;;;9.75
18713;BMP280;9485;49.386;8.674;2022-12-07T13:09:24;100383.63;;;9.83
18713;BMP280;9485;49.386;8.674;2022-12-07T13:14:57;100388.56;;;9.88
18713;BMP280;9485;49.386;8.674;2022-12-07T13:20:53;100384.78;;;9.91
18713;BMP280;9485;49.386;8.674;2022-12-07T13:26:21;100371.44;;;9.91
18713;BMP280;9485;49.386;8.674;2022-12-07T13:31:45;100370.94;;;9.93
18713;BMP280;9485;49.386;8.674;2022-12-07T13:37:15;100353.66;;;9.85
18713;BMP280;9485;49.386;8.674;2022-12-07T13:42:39;100361.63;;;9.87
18713;BMP280;9485;49.386;8.674;2022-12-07T13:48:01;100358.25;;;9.83
18713;BMP280;9485;49.386;8.674;2022-12-07T13:53:23;100361.28;;;9.79
18713;BMP280;9485;49.386;8.674;2022-12-07T13:58:45;100351.25;;;9.78
18713;BMP280;9485;49.386;8.674;2022-12-07T14:04:30;100358.66;;;9.76
18713;BMP280;9485;49.386;8.674;2022-12-07T14:09:57;100361.00;;;9.77
18713;BMP280;9485;49.386;8.674;2022-12-07T14:15:23;100352.25;;;9.75
18713;BMP280;9485;49.386;8.674;2022-12-07T14:20:45;100341.78;;;9.62
18713;BMP280;9485;49.386;8.674;2022-12-07T14:26:11;100354.06;;;9.59
18713;BMP280;9485;49.386;8.674;2022-12-07T14:31:34;100350.88;;;9.51
18713;BMP280;9485;49.386;8.674;2022-12-07T14:36:54;100363.13;;;9.48
18713;BMP280;9485;49.386;8.674;2022-12-07T14:42:15;100358.47;;;9.45
18713;BMP280;9485;49.386;8.674;2022-12-07T14:47:37;100357.31;;;9.37
18713;BMP280;9485;49.386;8.674;2022-12-07T14:53:03;100350.81;;;9.31
18713;BMP280;9485;49.386;8.674;2022-12-07T14:58:26;100350.25;;;9.27
18713;BMP280;9485;49.386;8.674;2022-12-07T15:03:48;100352.78;;;9.25
18713;BMP280;9485;49.386;8.674;2022-12-07T15:09:09;100350.97;;;9.22
18713;BMP280;9485;49.386;8.674;2022-12-07T15:14:30;100352.63;;;9.14
18713;BMP280;9485;49.386;8.674;2022-12-07T15:19:52;100345.25;;;9.02
18713;BMP280;9485;49.386;8.674;2022-12-07T15:25:13;100341.56;;;8.96
18713;BMP280;9485;49.386;8.674;2022-12-07T15:30:36;100355.56;;;8.91
18713;BMP280;9485;49.386;8.674;2022-12-07T15:35:59;100352.47;;;8.89
18713;BMP280;9485;49.386;8.674;2022-12-07T15:41:20;100348.38;;;8.90
18713;BMP280;9485;49.386;8.674;2022-12-07T15:46:42;100339.16;;;8.90
18713;BMP280;9485;49.386;8.674;2022-12-07T15:52:04;100328.88;;;8.87
18713;BMP280;9485;49.386;8.674;2022-12-07T15:57:25;100326.06;;;8.87
18713;BMP280;9485;49.386;8.674;2022-12-07T16:02:46;100324.00;;;8.87
18713;BMP280;9485;49.386;8.674;2022-12-07T16:08:07;100323.50;;;8.89
18713;BMP280;9485;49.386;8.674;2022-12-07T16:13:28;100316.75;;;8.81
18713;BMP280;9485;49.386;8.674;2022-12-07T16:18:50;100317.78;;;8.69
18713;BMP280;9485;49.386;8.674;2022-12-07T16:24:12;100313.53;;;8.59
18713;BMP280;9485;49.386;8.674;2022-12-07T16:29:34;100306.06;;;8.56
18713;BMP280;9485;49.386;8.674;2022-12-07T16:34:54;100311.38;;;8.54
18713;BMP280;9485;49.386;8.674;2022-12-07T16:40:16;100289.75;;;8.45
18713;BMP280;9485;49.386;8.674;2022-12-07T16:45:37;100308.38;;;8.57
18713;BMP280;9485;49.386;8.674;2022-12-07T16:51:02;100300.94;;;8.54
18713;BMP280;9485;49.386;8.674;2022-12-07T16:56:24;100292.66;;;8.51
18713;BMP280;9485;49.386;8.674;2022-12-07T17:01:45;100292.88;;;8.47
18713;BMP280;9485;49.386;8.674;2022-12-07T17:07:06;100300.06;;;8.48
18713;BMP280;9485;49.386;8.674;2022-12-07T17:12:28;100298.50;;;8.47
18713;BMP280;9485;49.386;8.674;2022-12-07T17:17:53;100296.56;;;8.39
18713;BMP280;9485;49.386;8.674;2022-12-07T17:23:14;100297.72;;;8.32
18713;BMP280;9485;49.386;8.674;2022-12-07T17:28:37;100295.19;;;8.34
18713;BMP280;9485;49.386;8.674;2022-12-07T17:33:58;100298.28;;;8.36
18713;BMP280;9485;49.386;8.674;2022-12-07T17:39:18;100296.84;;;8.26
18713;BMP280;9485;49.386;8.674;2022-12-07T17:44:40;100299.84;;;8.23
18713;BMP280;9485;49.386;8.674;2022-12-07T17:50:01;100294.72;;;8.22
18713;BMP280;9485;49.386;8.674;2022-12-07T17:55:22;100290.59;;;8.22
18713;BMP280;9485;49.386;8.674;2022-12-07T18:00:45;100294.03;;;8.26
18713;BMP280;9485;49.386;8.674;2022-12-07T18:06:06;100291.00;;;8.30
18713;BMP280;9485;49.386;8.674;2022-12-07T18:11:27;100288.59;;;8.23
18713;BMP280;9485;49.386;8.674;2022-12-07T18:16:48;100281.19;;;8.11
18713;BMP280;9485;49.386;8.674;2022-12-07T18:22:09;100282.53;;;8.16
18713;BMP280;9485;49.386;8.674;2022-12-07T18:27:30;100277.09;;;8.12
18713;BMP280;9485;49.386;8.674;2022-12-07T18:32:51;100277.88;;;8.13
18713;BMP280;9485;49.386;8.674;2022-12-07T18:38:13;100271.94;;;8.11
18713;BMP280;9485;49.386;8.674;2022-12-07T18:43:34;100285.25;;;8.10
18713;BMP280;9485;49.386;8.674;2022-12-07T18:48:56;100276.50;;;8.08
18713;BMP280;9485;49.386;8.674;2022-12-07T18:54:16;100281.56;;;8.04
18713;BMP280;9485;49.386;8.674;2022-12-07T18:59:38;100272.22;;;7.98
18713;BMP280;9485;49.386;8.674;2022-12-07T19:05:10;100270.56;;;7.92
18713;BMP280;9485;49.386;8.674;2022-12-07T19:10:30;100276.69;;;7.90
18713;BMP280;9485;49.386;8.674;2022-12-07T19:15:51;100267.16;;;7.88
18713;BMP280;9485;49.386;8.674;2022-12-07T19:21:13;100250.47;;;7.84
18713;BMP280;9485;49.386;8.674;2022-12-07T19:26:33;100247.56;;;7.79
18713;BMP280;9485;49.386;8.674;2022-12-07T19:31:54;100244.47;;;7.77
18713;BMP280;9485;49.386;8.674;2022-12-07T19:37:16;100260.56;;;7.76
18713;BMP280;9485;49.386;8.674;2022-12-07T19:42:37;100257.13;;;7.72
18713;BMP280;9485;49.386;8.674;2022-12-07T19:47:57;100257.03;;;7.67
18713;BMP280;9485;49.386;8.674;2022-12-07T19:53:19;100246.88;;;7.69
18713;BMP280;9485;49.386;8.674;2022-12-07T19:58:41;100248.50;;;7.61
18713;BMP280;9485;49.386;8.674;2022-12-07T20:04:04;100232.00;;;7.54
18713;BMP280;9485;49.386;8.674;2022-12-07T20:09:27;100230.16;;;7.51
18713;BMP280;9485;49.386;8.674;2022-12-07T20:14:48;100242.19;;;7.52
18713;BMP280;9485;49.386;8.674;2022-12-07T20:20:10;100237.19;;;7.47
18713;BMP280;9485;49.386;8.674;2022-12-07T20:25:34;100229.75;;;7.44
18713;BMP280;9485;49.386;8.674;2022-12-07T20:30:55;100224.31;;;7.41
18713;BMP280;9485;49.386;8.674;2022-12-07T20:36:18;100235.56;;;7.41
18713;BMP280;9485;49.386;8.674;2022-12-07T20:41:40;100235.38;;;7.44
18713;BMP280;9485;49.386;8.674;2022-12-07T20:47:18;100237.38;;;7.43
18713;BMP280;9485;49.386;8.674;2022-12-07T20:52:39;100234.47;;;7.38
18713;BMP280;9485;49.386;8.674;2022-12-07T20:58:01;100233.69;;;7.38
18713;BMP280;9485;49.386;8.674;2022-12-07T21:03:22;100226.81;;;7.39
18713;BMP280;9485;49.386;8.674;2022-12-07T21:08:43;100225.56;;;7.40
18713;BMP280;9485;49.386;8.674;2022-12-07T21:14:07;100203.75;;;7.35
18713;BMP280;9485;49.386;8.674;2022-12-07T21:19:28;100211.03;;;7.41
18713;BMP280;9485;49.386;8.674;2022-12-07T21:24:49;100200.41;;;7.45
18713;BMP280;9485;49.386;8.674;2022-12-07T21:30:11;100200.88;;;7.43
18713;BMP280;9485;49.386;8.674;2022-12-07T21:35:32;100194.97;;;7.42
18713;BMP280;9485;49.386;8.674;2022-12-07T21:40:53;100201.22;;;7.37
18713;BMP280;9485;49.386;8.674;2022-12-07T21:46:16;100182.44;;;7.43
18713;BMP280;9485;49.386;8.674;2022-12-07T21:51:38;100180.13;;;7.41
18713;BMP280;9485;49.386;8.674;2022-12-07T21:56:59;100179.72;;;7.34
18713;BMP280;9485;49.386;8.674;2022-12-07T22:02:21;100184.28;;;7.31
18713;BMP280;9485;49.386;8.674;2022-12-07T22:07:42;100176.94;;;7.34
18713;BMP280;9485;49.386;8.674;2022-12-07T22:13:02;100176.63;;;7.32
18713;BMP280;9485;49.386;8.674;2022-12-07T22:18:24;100171.78;;;7.32
18713;BMP280;9485;49.386;8.674;2022-12-07T22:23:45;100161.50;;;7.29
18713;BMP280;9485;49.386;8.674;2022-12-07T22:29:06;100163.25;;;7.27
18713;BMP280;9485;49.386;8.674;2022-12-07T22:34:28;100153.84;;;7.30
18713;BMP280;9485;49.386;8.674;2022-12-07T22:39:49;100159.19;;;7.28
18713;BMP280;9485;49.386;8.674;2022-12-07T22:45:09;100145.78;;;7.23
18713;BMP280;9485;49.386;8.674;2022-12-07T22:50:34;100144.16;;;7.16
18713;BMP280;9485;49.386;8.674;2022-12-07T22:55:56;100135.72;;;7.16
18713;BMP280;9485;49.386;8.674;2022-12-07T23:01:19;100136.66;;;7.13
18713;BMP280;9485;49.386;8.674;2022-12-07T23:06:41;100140.63;;;7.07
18713;BMP280;9485;49.386;8.674;2022-12-07T23:12:01;100132.84;;;7.02
18713;BMP280;9485;49.386;8.674;2022-12-07T23:17:40;100116.38;;;6.95
18713;BMP280;9485;49.386;8.674;2022-12-07T23:23:01;100122.28;;;6.97
18713;BMP280;9485;49.386;8.674;2022-12-07T23:28:22;100122.97;;;6.92
18713;BMP280;9485;49.386;8.674;2022-12-07T23:33:44;100126.41;;;6.87
18713;BMP280;9485;49.386;8.674;2022-12-07T23:39:08;100121.16;;;6.80
18713;BMP280;9485;49.386;8.674;2022-12-07T23:44:28;100120.63;;;6.67
18713;BMP280;9485;49.386;8.674;2022-12-07T23:49:49;100122.22;;;6.59
18713;BMP280;9485;49.386;8.674;2022-12-07T23:55:10;100111.53;;;6.49
